createdAt,value
2018-07-17T00:00:30.802Z,75.04
2018-07-17T00:01:11.318Z,75.46
2018-07-17T00:01:51.945Z,75.75
2018-07-17T00:02:32.462Z,75.65
2018-07-17T00:03:12.977Z,76.14
2018-07-17T00:03:53.495Z,77.01
2018-07-17T00:04:34.018Z,75.75
2018-07-17T00:05:14.543Z,76.01
2018-07-17T00:05:55.075Z,75.71
2018-07-17T00:06:35.599Z,75.75
2018-07-17T00:07:16.131Z,75.56
2018-07-17T00:07:56.659Z,75.71
2018-07-17T00:08:37.174Z,76.59
2018-07-17T00:09:17.705Z,75.91
2018-07-17T00:09:58.249Z,75.62
2018-07-17T00:10:38.789Z,76.01
2018-07-17T00:11:19.310Z,76.59
2018-07-17T00:11:59.830Z,75.91
2018-07-17T00:12:40.347Z,75.91
2018-07-17T00:13:20.861Z,75.91
2018-07-17T00:14:01.376Z,75.91
2018-07-17T00:14:41.886Z,76.49
2018-07-17T00:15:22.467Z,76.78
2018-07-17T00:16:02.923Z,76.1
2018-07-17T00:16:43.434Z,76.1
2018-07-17T00:17:23.960Z,76.78
2018-07-17T00:18:04.486Z,76.97
2018-07-17T00:18:45.018Z,76.59
2018-07-17T00:19:25.547Z,76.59
2018-07-17T00:20:06.045Z,77.07
2018-07-17T00:20:46.565Z,76.78
2018-07-17T00:21:27.082Z,76.97
2018-07-17T00:22:07.598Z,76.97
2018-07-17T00:22:48.115Z,77.45
2018-07-17T00:23:28.626Z,77.22
2018-07-17T00:24:09.141Z,77.55
2018-07-17T00:24:49.666Z,77.42
2018-07-17T00:25:30.205Z,78.23
2018-07-17T00:26:10.734Z,77.65
2018-07-17T00:26:51.260Z,78.58
2018-07-17T00:27:31.778Z,78.61
2018-07-17T00:28:12.293Z,79
2018-07-17T00:28:52.805Z,78.52
2018-07-17T00:29:33.320Z,78.23
2018-07-17T00:30:13.844Z,78.91
2018-07-17T00:30:54.377Z,78.61
2018-07-17T00:31:34.889Z,78.61
2018-07-17T00:32:15.398Z,77.94
2018-07-17T00:32:55.920Z,78.42
2018-07-17T00:33:36.442Z,78.52
2018-07-17T00:34:16.969Z,78.91
2018-07-17T00:34:57.482Z,78.61
2018-07-17T00:35:37.992Z,78.81
2018-07-17T00:36:18.524Z,78.42
2018-07-17T00:36:59.033Z,78.19
2018-07-17T00:37:39.552Z,78.77
2018-07-17T00:38:20.074Z,78.91
2018-07-17T00:39:00.600Z,79.39
2018-07-17T00:39:41.123Z,78.71
2018-07-17T00:40:21.645Z,78.71
2018-07-17T00:41:02.174Z,78.48
2018-07-17T00:41:42.687Z,78.87
2018-07-17T00:42:23.225Z,79.16
2018-07-17T00:43:03.732Z,79.06
2018-07-17T00:43:44.279Z,78.96
2018-07-17T00:44:24.831Z,79.06
2018-07-17T00:45:05.364Z,79.25
2018-07-17T00:45:45.892Z,79.35
2018-07-17T00:46:26.411Z,79.35
2018-07-17T00:47:06.936Z,79.64
2018-07-17T00:47:47.478Z,79.35
2018-07-17T00:48:28.011Z,79.35
2018-07-17T00:49:08.522Z,79.35
2018-07-17T00:49:49.037Z,79.99
2018-07-17T00:50:29.626Z,80.12
2018-07-17T00:51:10.111Z,80.03
2018-07-17T00:51:50.636Z,80.61
2018-07-17T00:52:31.151Z,80.22
2018-07-17T00:53:11.666Z,79.45
2018-07-17T00:53:52.186Z,79.45
2018-07-17T00:54:32.709Z,79.31
2018-07-17T00:55:13.221Z,79.06
2018-07-17T00:55:53.744Z,79.22
2018-07-17T00:56:34.267Z,79.22
2018-07-17T00:57:14.789Z,79.41
2018-07-17T00:57:55.314Z,79.99
2018-07-17T00:58:35.839Z,80.08
2018-07-17T00:59:16.345Z,79.8
2018-07-17T00:59:56.863Z,80.08
2018-07-17T01:00:37.393Z,79.8
2018-07-17T01:01:17.899Z,80.38
2018-07-17T01:01:58.429Z,80.47
2018-07-17T01:02:38.963Z,80.08
2018-07-17T01:03:19.501Z,79.99
2018-07-17T01:04:00.030Z,80.99
2018-07-17T01:04:40.543Z,79.93
2018-07-17T01:05:21.069Z,79.83
2018-07-17T01:06:01.591Z,79.35
2018-07-17T01:06:42.118Z,79.16
2018-07-17T01:07:22.626Z,79.02
2018-07-17T01:08:03.173Z,78.34
2018-07-17T01:08:43.680Z,78.92
2018-07-17T01:09:24.190Z,78.92
2018-07-17T01:10:04.709Z,79.02
2018-07-17T01:10:45.217Z,79.02
2018-07-17T01:11:25.747Z,79.02
2018-07-17T01:12:06.278Z,79.6
2018-07-17T01:12:46.790Z,79.89
2018-07-17T01:13:27.335Z,79.22
2018-07-17T01:14:07.850Z,79.99
2018-07-17T01:14:48.368Z,79.8
2018-07-17T01:15:28.893Z,80.18
2018-07-17T01:16:09.415Z,79.31
2018-07-17T01:16:49.944Z,79.31
2018-07-17T01:17:30.472Z,79.22
2018-07-17T01:18:11.004Z,79.99
2018-07-17T01:18:51.522Z,80.28
2018-07-17T01:19:32.039Z,79.31
2018-07-17T01:20:12.571Z,79.8
2018-07-17T01:20:53.094Z,79.41
2018-07-17T01:21:33.625Z,79.99
2018-07-17T01:22:14.136Z,79.22
2018-07-17T01:22:54.655Z,79.12
2018-07-17T01:23:35.219Z,80.08
2018-07-17T01:24:15.696Z,79.7
2018-07-17T01:24:56.220Z,80.28
2018-07-17T01:25:36.740Z,80.38
2018-07-17T01:26:17.261Z,79.8
2018-07-17T01:26:57.777Z,80.18
2018-07-17T01:27:38.314Z,80.86
2018-07-17T01:28:18.832Z,80.18
2018-07-17T01:28:59.361Z,80.18
2018-07-17T01:29:39.867Z,81.05
2018-07-17T01:30:20.393Z,80.57
2018-07-17T01:31:00.929Z,80.76
2018-07-17T01:31:41.447Z,81.24
2018-07-17T01:32:21.966Z,81.63
2018-07-17T01:33:02.486Z,81.29
2018-07-17T01:33:43.002Z,81.05
2018-07-17T01:34:23.515Z,81.05
2018-07-17T01:35:04.042Z,80.08
2018-07-17T01:35:44.565Z,80.95
2018-07-17T01:36:25.082Z,80.95
2018-07-17T01:37:05.594Z,80.47
2018-07-17T01:37:46.146Z,80.66
2018-07-17T01:38:26.670Z,80.18
2018-07-17T01:39:07.191Z,80.38
2018-07-17T01:39:47.705Z,79.8
2018-07-17T01:40:28.236Z,79.89
2018-07-17T01:41:08.758Z,80.38
2018-07-17T01:41:49.278Z,80.18
2018-07-17T01:42:29.793Z,80.57
2018-07-17T01:43:10.322Z,79.6
2018-07-17T01:43:50.851Z,79.41
2018-07-17T01:44:31.371Z,79.41
2018-07-17T01:45:11.905Z,79.41
2018-07-17T01:45:52.420Z,79.41
2018-07-17T01:46:32.937Z,79.99
2018-07-17T01:47:13.457Z,80.08
2018-07-17T01:47:53.989Z,79.99
2018-07-17T01:48:34.501Z,79.95
2018-07-17T01:49:15.043Z,80.18
2018-07-17T01:49:55.568Z,80.47
2018-07-17T01:50:36.096Z,79.95
2018-07-17T01:51:16.619Z,80.33
2018-07-17T01:51:57.136Z,80.33
2018-07-17T01:52:37.660Z,80.14
2018-07-17T01:53:18.194Z,80.76
2018-07-17T01:53:58.723Z,80.95
2018-07-17T01:54:39.256Z,81.53
2018-07-17T01:55:19.761Z,80.91
2018-07-17T01:56:00.291Z,80.14
2018-07-17T01:56:40.812Z,81.34
2018-07-17T01:57:21.360Z,80.38
2018-07-17T01:58:01.873Z,79.99
2018-07-17T01:58:42.405Z,79.8
2018-07-17T01:59:22.927Z,79.8
2018-07-17T02:00:03.437Z,79.89
2018-07-17T02:00:43.963Z,80.18
2018-07-17T02:01:24.478Z,79.8
2018-07-17T02:02:05.002Z,80.08
2018-07-17T02:02:45.561Z,80.18
2018-07-17T02:03:26.034Z,79.75
2018-07-17T02:04:06.557Z,80.72
2018-07-17T02:04:47.144Z,81.2
2018-07-17T02:05:27.594Z,80.95
2018-07-17T02:06:08.133Z,81.15
2018-07-17T02:06:48.638Z,81.24
2018-07-17T02:07:29.168Z,81.44
2018-07-17T02:08:09.703Z,80.66
2018-07-17T02:08:50.227Z,80.53
2018-07-17T02:09:30.756Z,81.3
2018-07-17T02:10:11.289Z,81.2
2018-07-17T02:10:51.809Z,81.3
2018-07-17T02:11:32.337Z,81.34
2018-07-17T02:12:12.860Z,82.02
2018-07-17T02:12:53.394Z,81.34
2018-07-17T02:13:33.917Z,81.53
2018-07-17T02:14:14.435Z,81.34
2018-07-17T02:14:54.963Z,80.57
2018-07-17T02:15:35.484Z,80.62
2018-07-17T02:16:15.999Z,80.43
2018-07-17T02:16:56.515Z,80.82
2018-07-17T02:17:37.040Z,81.01
2018-07-17T02:18:17.561Z,80.82
2018-07-17T02:18:58.084Z,81.2
2018-07-17T02:19:38.607Z,81.2
2018-07-17T02:20:19.140Z,81.11
2018-07-17T02:20:59.661Z,81.2
2018-07-17T02:21:40.188Z,81.2
2018-07-17T02:22:20.694Z,81.2
2018-07-17T02:23:01.220Z,81.01
2018-07-17T02:23:41.743Z,81.01
2018-07-17T02:24:22.271Z,81.01
2018-07-17T02:25:02.801Z,81.01
2018-07-17T02:25:43.331Z,80.43
2018-07-17T02:26:23.844Z,80.53
2018-07-17T02:27:04.370Z,80.78
2018-07-17T02:27:44.895Z,80.72
2018-07-17T02:28:25.408Z,81.2
2018-07-17T02:29:05.928Z,81.2
2018-07-17T02:29:46.491Z,81.01
2018-07-17T02:30:26.960Z,80.62
2018-07-17T02:31:07.483Z,81.01
2018-07-17T02:31:48.009Z,80.91
2018-07-17T02:32:28.522Z,80.53
2018-07-17T02:33:09.039Z,79.95
2018-07-17T02:33:49.579Z,80.14
2018-07-17T02:34:30.095Z,80.62
2018-07-17T02:35:10.624Z,80.91
2018-07-17T02:35:51.152Z,80.2
2018-07-17T02:36:31.674Z,80.58
2018-07-17T02:37:12.186Z,80.62
2018-07-17T02:37:52.705Z,81.01
2018-07-17T02:38:33.238Z,80.62
2018-07-17T02:39:13.764Z,80.97
2018-07-17T02:39:54.285Z,80.68
2018-07-17T02:40:34.803Z,81.16
2018-07-17T02:41:15.340Z,81.07
2018-07-17T02:41:55.854Z,80.97
2018-07-17T02:42:36.375Z,81.16
2018-07-17T02:43:16.894Z,81.07
2018-07-17T02:43:57.417Z,81.07
2018-07-17T02:44:37.941Z,81.74
2018-07-17T02:45:18.466Z,81.55
2018-07-17T02:45:59.004Z,81.45
2018-07-17T02:46:39.549Z,81.45
2018-07-17T02:47:20.079Z,81.65
2018-07-17T02:48:00.607Z,81.78
2018-07-17T02:48:41.119Z,82.26
2018-07-17T02:49:21.636Z,81.74
2018-07-17T02:50:02.170Z,81.65
2018-07-17T02:50:42.706Z,81.2
2018-07-17T02:51:23.209Z,81.45
2018-07-17T02:52:03.728Z,81.3
2018-07-17T02:52:44.244Z,81.49
2018-07-17T02:53:24.779Z,80.53
2018-07-17T02:54:05.297Z,80.53
2018-07-17T02:54:45.822Z,80.82
2018-07-17T02:55:26.368Z,80.53
2018-07-17T02:56:06.898Z,80.91
2018-07-17T02:56:47.417Z,81.2
2018-07-17T02:57:27.933Z,80.82
2018-07-17T02:58:08.452Z,80.62
2018-07-17T02:58:48.966Z,80.62
2018-07-17T02:59:29.487Z,80.91
2018-07-17T03:00:10.010Z,81.16
2018-07-17T03:00:50.530Z,81.11
2018-07-17T03:01:31.048Z,81.16
2018-07-17T03:02:11.559Z,81.35
2018-07-17T03:02:52.079Z,81.45
2018-07-17T03:03:32.597Z,81.35
2018-07-17T03:04:13.129Z,82.03
2018-07-17T03:04:53.647Z,82.23
2018-07-17T03:05:34.168Z,82.13
2018-07-17T03:06:14.696Z,82.23
2018-07-17T03:06:55.304Z,82.23
2018-07-17T03:07:35.748Z,81.35
2018-07-17T03:08:16.279Z,81.16
2018-07-17T03:08:56.867Z,81.65
2018-07-17T03:09:37.324Z,81.26
2018-07-17T03:10:17.850Z,81.93
2018-07-17T03:10:58.379Z,82.23
2018-07-17T03:11:38.917Z,82.23
2018-07-17T03:12:19.441Z,82.23
2018-07-17T03:12:59.962Z,81.74
2018-07-17T03:13:40.488Z,81.16
2018-07-17T03:14:21.005Z,80.97
2018-07-17T03:15:01.531Z,81.65
2018-07-17T03:15:42.048Z,81.45
2018-07-17T03:16:22.568Z,81.65
2018-07-17T03:17:03.084Z,81.65
2018-07-17T03:17:43.621Z,82.23
2018-07-17T03:18:24.163Z,81.99
2018-07-17T03:19:04.683Z,82.38
2018-07-17T03:19:45.212Z,82.61
2018-07-17T03:20:25.737Z,82.61
2018-07-17T03:21:06.260Z,82.32
2018-07-17T03:21:46.775Z,82.61
2018-07-17T03:22:27.293Z,82.51
2018-07-17T03:23:07.821Z,83
2018-07-17T03:23:48.345Z,82.42
2018-07-17T03:24:28.874Z,82.51
2018-07-17T03:25:09.459Z,82.23
2018-07-17T03:25:49.932Z,82.13
2018-07-17T03:26:30.457Z,82.23
2018-07-17T03:27:10.975Z,81.74
2018-07-17T03:27:51.499Z,81.35
2018-07-17T03:28:32.014Z,81.55
2018-07-17T03:29:12.533Z,81.45
2018-07-17T03:29:53.042Z,82.23
2018-07-17T03:30:33.557Z,82.23
2018-07-17T03:31:14.081Z,82.23
2018-07-17T03:31:54.600Z,82.03
2018-07-17T03:32:35.124Z,82.32
2018-07-17T03:33:15.640Z,82.13
2018-07-17T03:33:56.178Z,82.51
2018-07-17T03:34:36.700Z,82.32
2018-07-17T03:35:17.217Z,81.74
2018-07-17T03:35:57.736Z,81.93
2018-07-17T03:36:38.263Z,82.18
2018-07-17T03:37:18.832Z,82.23
2018-07-17T03:37:59.288Z,82.23
2018-07-17T03:38:39.817Z,82.81
2018-07-17T03:39:20.360Z,82.32
2018-07-17T03:40:00.873Z,82.9
2018-07-17T03:40:41.414Z,82.81
2018-07-17T03:41:21.913Z,82.23
2018-07-17T03:42:02.438Z,82.71
2018-07-17T03:42:42.955Z,81.84
2018-07-17T03:43:23.504Z,81.84
2018-07-17T03:44:04.020Z,82.23
2018-07-17T03:44:44.554Z,81.65
2018-07-17T03:45:25.068Z,82.23
2018-07-17T03:46:05.581Z,81.93
2018-07-17T03:46:46.105Z,81.45
2018-07-17T03:47:26.626Z,81.65
2018-07-17T03:48:07.147Z,81.26
2018-07-17T03:48:47.679Z,81.26
2018-07-17T03:49:28.199Z,80.97
2018-07-17T03:50:08.737Z,79.81
2018-07-17T03:50:49.262Z,81.26
2018-07-17T03:51:29.779Z,80.58
2018-07-17T03:52:10.320Z,80.68
2018-07-17T03:52:50.850Z,80.49
2018-07-17T03:53:31.360Z,80.97
2018-07-17T03:54:11.884Z,80
2018-07-17T03:54:52.409Z,80.3
2018-07-17T03:55:32.933Z,79.72
2018-07-17T03:56:13.461Z,79.72
2018-07-17T03:56:53.989Z,80.49
2018-07-17T03:57:34.508Z,80.05
2018-07-17T03:58:15.034Z,80.49
2018-07-17T03:58:55.564Z,79.62
2018-07-17T03:59:36.095Z,79.91
2018-07-17T04:00:16.611Z,79.91
2018-07-17T04:00:57.135Z,79.81
2018-07-17T04:01:37.648Z,79.72
2018-07-17T04:02:18.171Z,80
2018-07-17T04:02:58.736Z,79.62
2018-07-17T04:03:39.226Z,79.81
2018-07-17T04:04:19.778Z,79.24
2018-07-17T04:05:00.278Z,79.95
2018-07-17T04:05:40.807Z,80
2018-07-17T04:06:21.383Z,79.91
2018-07-17T04:07:01.863Z,79.91
2018-07-17T04:07:42.394Z,80
2018-07-17T04:08:22.897Z,79.27
2018-07-17T04:09:03.413Z,80
2018-07-17T04:09:43.937Z,79.24
2018-07-17T04:10:24.469Z,79.62
2018-07-17T04:11:04.986Z,79.33
2018-07-17T04:11:45.537Z,79.47
2018-07-17T04:12:26.030Z,79.56
2018-07-17T04:13:06.558Z,79.08
2018-07-17T04:13:47.075Z,78.79
2018-07-17T04:14:27.593Z,79.27
2018-07-17T04:15:08.119Z,79.17
2018-07-17T04:15:48.652Z,79.37
2018-07-17T04:16:29.171Z,78.89
2018-07-17T04:17:09.720Z,79.17
2018-07-17T04:17:50.231Z,78.99
2018-07-17T04:18:30.760Z,79.27
2018-07-17T04:19:11.275Z,79.17
2018-07-17T04:19:51.797Z,79.47
2018-07-17T04:20:32.322Z,79.17
2018-07-17T04:21:12.837Z,79.17
2018-07-17T04:21:53.368Z,78.89
2018-07-17T04:22:33.899Z,79.27
2018-07-17T04:23:14.422Z,79.17
2018-07-17T04:23:54.947Z,78.69
2018-07-17T04:24:35.463Z,78.99
2018-07-17T04:25:15.985Z,78.69
2018-07-17T04:25:56.517Z,78.69
2018-07-17T04:26:37.244Z,78.79
2018-07-17T04:27:17.754Z,78.59
2018-07-17T04:27:58.281Z,78.41
2018-07-17T04:28:38.801Z,78.41
2018-07-17T04:29:19.325Z,78.02
2018-07-17T04:29:59.854Z,77.53
2018-07-17T04:30:40.369Z,77.53
2018-07-17T04:31:20.886Z,77.44
2018-07-17T04:32:01.415Z,77.63
2018-07-17T04:32:41.955Z,77.63
2018-07-17T04:33:22.487Z,77.73
2018-07-17T04:34:03.011Z,77.83
2018-07-17T04:34:43.540Z,77.73
2018-07-17T04:35:24.062Z,77.73
2018-07-17T04:36:04.580Z,77.92
2018-07-17T04:36:45.105Z,77.05
2018-07-17T04:37:25.640Z,77.73
2018-07-17T04:38:06.151Z,77.73
2018-07-17T04:38:46.666Z,77.28
2018-07-17T04:39:27.182Z,76.9
2018-07-17T04:40:07.731Z,76.61
2018-07-17T04:40:48.240Z,76.9
2018-07-17T04:41:28.773Z,76.22
2018-07-17T04:42:09.307Z,77
2018-07-17T04:42:49.863Z,76.7
2018-07-17T04:43:30.352Z,76.61
2018-07-17T04:44:10.946Z,76.7
2018-07-17T04:44:51.407Z,76.7
2018-07-17T04:45:31.967Z,77
2018-07-17T04:46:12.446Z,76.32
2018-07-17T04:46:52.973Z,76.22
2018-07-17T04:47:33.525Z,76.86
2018-07-17T04:48:14.053Z,76.47
2018-07-17T04:48:54.570Z,77.09
2018-07-17T04:49:35.092Z,76.61
2018-07-17T04:50:15.604Z,76.7
2018-07-17T04:50:56.143Z,76.7
2018-07-17T04:51:36.664Z,76.61
2018-07-17T04:52:17.189Z,76.9
2018-07-17T04:52:57.737Z,76.8
2018-07-17T04:53:38.321Z,76.7
2018-07-17T04:54:18.857Z,76.42
2018-07-17T04:54:59.421Z,76.03
2018-07-17T04:55:40.116Z,76.42
2018-07-17T04:56:21.737Z,75.74
2018-07-17T04:57:02.295Z,76.12
2018-07-17T04:57:42.799Z,75.93
2018-07-17T04:58:23.320Z,76.03
2018-07-17T04:59:03.862Z,74.96
2018-07-17T04:59:44.387Z,74.23
2018-07-17T05:00:24.906Z,74.32
2018-07-17T05:01:05.418Z,74.13
2018-07-17T05:01:45.985Z,74.19
2018-07-17T05:02:26.480Z,73.71
2018-07-17T05:03:07.021Z,73.61
2018-07-17T05:03:47.550Z,73.52
2018-07-17T05:04:28.184Z,74.19
2018-07-17T05:05:08.699Z,75.35
2018-07-17T05:05:49.227Z,80.86
2018-07-17T05:06:29.756Z,82.98
2018-07-17T05:07:10.294Z,81.24
2018-07-17T05:07:50.810Z,75.64
2018-07-17T05:08:31.318Z,78.44
2018-07-17T05:09:11.842Z,82.11
2018-07-17T05:09:52.361Z,85.63
2018-07-17T05:10:32.874Z,86.11
2018-07-17T05:11:13.409Z,87.33
2018-07-17T05:11:53.914Z,86.46
2018-07-17T05:12:34.426Z,85.88
2018-07-17T05:13:14.949Z,84.86
2018-07-17T05:13:55.462Z,85.49
2018-07-17T05:14:35.999Z,86.07
2018-07-17T05:15:16.513Z,84.47
2018-07-17T05:15:57.039Z,83.99
2018-07-17T05:16:37.556Z,84.28
2018-07-17T05:17:18.090Z,85.83
2018-07-17T05:17:58.644Z,84.57
2018-07-17T05:18:39.185Z,84.71
2018-07-17T05:19:19.712Z,83.84
2018-07-17T05:20:00.253Z,85.1
2018-07-17T05:20:40.774Z,86.93
2018-07-17T05:21:21.366Z,87.51
2018-07-17T05:22:01.813Z,86.93
2018-07-17T05:22:42.337Z,84.61
2018-07-17T05:23:22.849Z,83.16
2018-07-17T05:24:03.386Z,82
2018-07-17T05:24:43.917Z,85
2018-07-17T05:25:24.440Z,86.55
2018-07-17T05:26:04.956Z,86.93
2018-07-17T05:26:45.483Z,81.9
2018-07-17T05:27:26.010Z,81.48
2018-07-17T05:28:06.549Z,82.54
2018-07-17T05:28:47.060Z,82.35
2018-07-17T05:29:27.581Z,82.64
2018-07-17T05:30:08.124Z,83.61
2018-07-17T05:30:48.646Z,82.64
2018-07-17T05:31:29.175Z,78.58
2018-07-17T05:32:09.704Z,78.77
2018-07-17T05:32:50.221Z,76.45
2018-07-17T05:33:30.748Z,75.48
2018-07-17T05:34:11.266Z,79.16
2018-07-17T05:34:51.787Z,79.25
2018-07-17T05:35:32.385Z,74.23
2018-07-17T05:36:12.851Z,74.1
2018-07-17T05:36:53.374Z,77.86
2018-07-17T05:37:33.910Z,80.47
2018-07-17T05:38:14.460Z,81.05
2018-07-17T05:38:54.966Z,82.5
2018-07-17T05:39:35.489Z,81.24
2018-07-17T05:40:16.011Z,81.44
2018-07-17T05:40:56.559Z,83.08
2018-07-17T05:41:37.077Z,80.76
2018-07-17T05:42:17.685Z,83.75
2018-07-17T05:42:58.203Z,83.7
2018-07-17T05:43:38.780Z,82.89
2018-07-17T05:44:19.298Z,82.02
2018-07-17T05:44:59.821Z,81.92
2018-07-17T05:45:40.350Z,80.86
2018-07-17T05:46:20.887Z,82.21
2018-07-17T05:47:01.410Z,82.69
2018-07-17T05:47:41.933Z,83.37
2018-07-17T05:48:22.514Z,84.43
2018-07-17T05:49:02.984Z,83.51
2018-07-17T05:49:43.520Z,86.11
2018-07-17T05:50:24.037Z,87.37
2018-07-17T05:51:04.563Z,87.47
2018-07-17T05:51:45.080Z,86.83
2018-07-17T05:52:25.596Z,83.61
2018-07-17T05:53:06.170Z,79.83
2018-07-17T05:53:46.654Z,85.1
2018-07-17T05:54:27.180Z,77.51
2018-07-17T05:55:07.701Z,81.19
2018-07-17T05:55:48.229Z,86.41
2018-07-17T05:56:28.760Z,81.9
2018-07-17T05:57:09.285Z,84.32
2018-07-17T05:57:49.808Z,85.48
2018-07-17T05:58:30.348Z,77.17
2018-07-17T05:59:10.871Z,83.74
2018-07-17T05:59:51.392Z,84.9
2018-07-17T06:00:31.918Z,86.2
2018-07-17T06:01:12.444Z,87.17
2018-07-17T06:01:52.972Z,87.79
2018-07-17T06:02:33.488Z,85.47
2018-07-17T06:03:14.058Z,85.03
2018-07-17T06:03:54.541Z,88.71
2018-07-17T06:04:35.065Z,88.32
2018-07-17T06:05:15.584Z,87.59
2018-07-17T06:05:56.100Z,83.03
2018-07-17T06:06:36.620Z,85.94
2018-07-17T06:07:17.147Z,80.22
2018-07-17T06:07:57.673Z,80.13
2018-07-17T06:08:38.215Z,86.04
2018-07-17T06:09:18.746Z,88.37
2018-07-17T06:09:59.264Z,88.99
2018-07-17T06:10:39.807Z,88.99
2018-07-17T06:11:20.339Z,89.18
2018-07-17T06:12:00.854Z,89.86
2018-07-17T06:12:41.386Z,87.87
2018-07-17T06:13:21.925Z,87.09
2018-07-17T06:14:02.459Z,84.38
2018-07-17T06:14:42.985Z,86.61
2018-07-17T06:15:23.502Z,87.19
2018-07-17T06:16:04.025Z,86.9
2018-07-17T06:16:44.565Z,87.23
2018-07-17T06:17:25.096Z,86.85
2018-07-17T06:18:05.615Z,86.26
2018-07-17T06:18:46.138Z,82.87
2018-07-17T06:19:26.660Z,81.8
2018-07-17T06:20:07.194Z,80.54
2018-07-17T06:20:47.945Z,79.57
2018-07-17T06:21:28.436Z,80.25
2018-07-17T06:22:09.069Z,80.77
2018-07-17T06:22:49.497Z,79.66
2018-07-17T06:23:30.030Z,77.92
2018-07-17T06:24:10.563Z,76.65
2018-07-17T06:24:51.094Z,76.17
2018-07-17T06:25:31.622Z,76.07
2018-07-17T06:26:12.140Z,75.04
2018-07-17T06:26:52.656Z,74.17
2018-07-17T06:27:33.183Z,75.3
2018-07-17T06:28:13.721Z,76.85
2018-07-17T06:28:54.244Z,74.43
2018-07-17T06:29:34.766Z,70.83
2018-07-17T06:30:15.298Z,70.03
2018-07-17T06:30:55.821Z,73.8
2018-07-17T06:31:36.349Z,76.75
2018-07-17T06:32:16.911Z,78.69
2018-07-17T06:32:57.489Z,69.57
2018-07-17T06:33:37.977Z,72.29
2018-07-17T06:34:18.493Z,67.54
2018-07-17T06:34:59.017Z,69.48
2018-07-17T06:35:39.541Z,72.19
2018-07-17T06:36:20.119Z,71.61
2018-07-17T06:37:00.618Z,72.61
2018-07-17T06:37:41.148Z,74.85
2018-07-17T06:38:21.661Z,74.17
2018-07-17T06:39:02.194Z,73.78
2018-07-17T06:39:42.720Z,72.33
2018-07-17T06:40:23.231Z,77.86
2018-07-17T06:41:03.756Z,72.42
2018-07-17T06:41:44.290Z,67.37
2018-07-17T06:42:24.810Z,68.35
2018-07-17T06:43:05.338Z,73.78
2018-07-17T06:43:45.850Z,67.86
2018-07-17T06:44:26.385Z,70.97
2018-07-17T06:45:06.911Z,72.91
2018-07-17T06:45:47.446Z,68.54
2018-07-17T06:46:27.999Z,77.22
2018-07-17T06:47:08.522Z,73
2018-07-17T06:47:49.062Z,67.76
2018-07-17T06:48:29.584Z,67.21
2018-07-17T06:49:10.104Z,72.55
2018-07-17T06:49:50.640Z,79.64
2018-07-17T06:50:31.301Z,80.42
2018-07-17T06:51:11.722Z,79.64
2018-07-17T06:51:52.259Z,82.75
2018-07-17T06:52:32.784Z,76.73
2018-07-17T06:53:13.302Z,78.38
2018-07-17T06:53:53.824Z,80.52
2018-07-17T06:54:34.350Z,74.5
2018-07-17T06:55:14.868Z,80.13
2018-07-17T06:55:55.401Z,83.09
2018-07-17T06:56:35.921Z,79.39
2018-07-17T06:57:16.472Z,74.92
2018-07-17T06:57:56.978Z,81.34
2018-07-17T06:58:37.529Z,82.31
2018-07-17T06:59:18.754Z,83.28
2018-07-17T06:59:59.291Z,73.85
2018-07-17T07:00:39.817Z,71.52
2018-07-17T07:01:20.365Z,75.8
2018-07-17T07:02:00.884Z,73.85
2018-07-17T07:02:41.412Z,79.3
2018-07-17T07:03:21.933Z,82.93
2018-07-17T07:04:02.450Z,72.14
2018-07-17T07:04:42.936Z,75.93
2018-07-17T07:05:23.496Z,81.18
2018-07-17T07:06:04.028Z,80.5
2018-07-17T07:06:44.562Z,82.45
2018-07-17T07:07:25.090Z,81.96
2018-07-17T07:08:05.591Z,80.69
2018-07-17T07:08:46.125Z,81.09
2018-07-17T07:09:26.648Z,77.29
2018-07-17T07:10:07.179Z,73.4
2018-07-17T07:10:47.709Z,75.35
2018-07-17T07:11:28.220Z,76.42
2018-07-17T07:12:08.759Z,78.07
2018-07-17T07:12:49.298Z,68.74
2018-07-17T07:13:29.821Z,66.02
2018-07-17T07:14:10.369Z,70.87
2018-07-17T07:14:50.870Z,75.54
2018-07-17T07:15:31.405Z,76.22
2018-07-17T07:16:11.939Z,78.27
2018-07-17T07:16:52.461Z,75.93
2018-07-17T07:17:32.980Z,67.15
2018-07-17T07:18:13.489Z,70.36
2018-07-17T07:18:54.009Z,73.56
2018-07-17T07:19:34.545Z,75.93
2018-07-17T07:20:15.057Z,77.39
2018-07-17T07:20:55.590Z,71.56
2018-07-17T07:21:36.143Z,77.78
2018-07-17T07:22:16.688Z,74.38
2018-07-17T07:22:57.225Z,73.3
2018-07-17T07:23:37.744Z,73.69
2018-07-17T07:24:18.274Z,69.71
2018-07-17T07:24:58.801Z,74.76
2018-07-17T07:25:39.315Z,74.38
2018-07-17T07:26:19.843Z,74.08
2018-07-17T07:27:00.376Z,72.11
2018-07-17T07:27:40.888Z,72.3
2018-07-17T07:28:21.419Z,74.34
2018-07-17T07:29:01.948Z,74.18
2018-07-17T07:29:42.486Z,75.05
2018-07-17T07:30:23.007Z,78.46
2018-07-17T07:31:03.643Z,78.3
2018-07-17T07:31:44.064Z,76.71
2018-07-17T07:32:24.581Z,75.93
2018-07-17T07:33:05.125Z,79.04
2018-07-17T07:33:45.658Z,80.99
2018-07-17T07:34:26.183Z,79.57
2018-07-17T07:35:06.703Z,78.79
2018-07-17T07:35:47.228Z,65.85
2018-07-17T07:36:27.750Z,66.24
2018-07-17T07:37:08.286Z,71.88
2018-07-17T07:37:48.824Z,76.35
2018-07-17T07:38:29.361Z,69.06
2018-07-17T07:39:09.878Z,71.2
2018-07-17T07:39:50.403Z,72.17
2018-07-17T07:40:30.930Z,76.35
2018-07-17T07:41:11.462Z,67.93
2018-07-17T07:41:52.005Z,69.35
2018-07-17T07:42:32.548Z,69.1
2018-07-17T07:43:13.066Z,71.92
2018-07-17T07:43:53.610Z,75.81
2018-07-17T07:44:34.117Z,80
2018-07-17T07:45:14.644Z,77.76
2018-07-17T07:45:55.164Z,77.37
2018-07-17T07:46:35.692Z,72.02
2018-07-17T07:47:16.241Z,73.47
2018-07-17T07:47:56.774Z,80
2018-07-17T07:48:37.317Z,73.28
2018-07-17T07:49:17.892Z,71.23
2018-07-17T07:49:58.395Z,77.76
2018-07-17T07:50:38.931Z,70.85
2018-07-17T07:51:19.469Z,75.23
2018-07-17T07:51:59.994Z,77.56
2018-07-17T07:52:40.532Z,79.32
2018-07-17T07:53:21.059Z,78.05
2018-07-17T07:54:01.585Z,76.3
2018-07-17T07:54:42.121Z,76.98
2018-07-17T07:55:22.642Z,69.78
2018-07-17T07:56:03.157Z,68.32
2018-07-17T07:56:43.683Z,69.26
2018-07-17T07:57:24.213Z,69.65
2018-07-17T07:58:04.754Z,65.95
2018-07-17T07:58:45.277Z,68.51
2018-07-17T07:59:25.808Z,67.31
2018-07-17T08:00:06.351Z,69.35
2018-07-17T08:00:46.878Z,67.21
2018-07-17T08:01:27.443Z,72.86
2018-07-17T08:02:07.974Z,73.67
2018-07-17T08:02:48.490Z,74.06
2018-07-17T08:03:29.076Z,75.52
2018-07-17T08:04:09.536Z,78.05
2018-07-17T08:04:50.069Z,77.37
2018-07-17T08:05:30.597Z,77.56
2018-07-17T08:06:11.134Z,78.44
2018-07-17T08:06:51.655Z,79.12
2018-07-17T08:07:32.190Z,78.25
2018-07-17T08:08:12.747Z,79.71
2018-07-17T08:08:53.265Z,78.05
2018-07-17T08:09:33.788Z,71.82
2018-07-17T08:10:14.333Z,75.03
2018-07-17T08:10:54.864Z,76.2
2018-07-17T08:11:35.444Z,75.32
2018-07-17T08:12:15.993Z,78.34
2018-07-17T08:12:56.452Z,77.66
2018-07-17T08:13:36.995Z,75.62
2018-07-17T08:14:17.529Z,76.1
2018-07-17T08:14:58.085Z,73.86
2018-07-17T08:15:38.575Z,68.8
2018-07-17T08:16:19.097Z,67.25
2018-07-17T08:16:59.630Z,68.32
2018-07-17T08:17:40.169Z,67.44
2018-07-17T08:18:20.731Z,66.08
2018-07-17T08:19:01.275Z,70.95
2018-07-17T08:19:41.791Z,66.08
2018-07-17T08:20:22.315Z,69.58
2018-07-17T08:21:02.840Z,69.29
2018-07-17T08:21:43.372Z,66.86
2018-07-17T08:22:23.976Z,70.65
2018-07-17T08:23:04.469Z,71.92
2018-07-17T08:23:44.980Z,72.11
2018-07-17T08:24:25.539Z,72.41
2018-07-17T08:25:06.038Z,69.39
2018-07-17T08:25:46.537Z,71.92
2018-07-17T08:26:27.049Z,73.77
2018-07-17T08:27:07.591Z,71.5
2018-07-17T08:27:48.128Z,70.46
2018-07-17T08:28:28.651Z,71.72
2018-07-17T08:29:09.183Z,70.65
2018-07-17T08:29:49.925Z,71.43
2018-07-17T08:30:30.369Z,73.86
2018-07-17T08:31:10.901Z,74.93
2018-07-17T08:31:51.441Z,73.54
2018-07-17T08:32:32.047Z,70.17
2018-07-17T08:33:12.548Z,64.91
2018-07-17T08:33:53.077Z,66.96
2018-07-17T08:34:33.599Z,66.37
2018-07-17T08:35:14.130Z,72.99
2018-07-17T08:35:54.762Z,74.45
2018-07-17T08:36:35.193Z,74.99
2018-07-17T08:37:15.720Z,74.22
2018-07-17T08:37:56.249Z,72.86
2018-07-17T08:38:36.756Z,72.17
2018-07-17T08:39:17.264Z,70.62
2018-07-17T08:39:57.884Z,74.99
2018-07-17T08:40:38.419Z,75.38
2018-07-17T08:41:18.949Z,73.38
2018-07-17T08:41:59.477Z,72.89
2018-07-17T08:42:40.012Z,72.17
2018-07-17T08:43:20.545Z,69.06
2018-07-17T08:44:01.133Z,69.16
2018-07-17T08:44:41.699Z,69.16